This is the latest recevied weather packets stored in our database for station/object SP6RGZ-1. If no packets are shown the sender has not sent any weather packets the latest 10 day(s).
| Time | Temp. | Humidity | Pressure | Rain* | Wind** | Luminosity | Snow |
|---|---|---|---|---|---|---|---|
| 1777979702 | 28.89° C | 31% | 987.5 hPa | - | - | - | - |
| 1777978802 | 28.89° C | 33% | 987.6 hPa | - | - | - | - |
| 1777977002 | 30° C | 31% | 987.9 hPa | - | - | - | - |
| 1777976102 | 30° C | 33% | 988 hPa | - | - | - | - |
| 1777975202 | 28.33° C | 34% | 988.1 hPa | - | - | - | - |
| 1777973402 | 28.33° C | 35% | 988.3 hPa | - | - | - | - |
| 1777972502 | 28.33° C | 35% | 988.5 hPa | - | - | - | - |
| 1777971602 | 27.78° C | 36% | 988.7 hPa | - | - | - | - |
| 1777969802 | 25° C | 42% | 989.1 hPa | - | - | - | - |
| 1777968903 | 22.78° C | 49% | 989.2 hPa | - | - | - | - |
| 1777968002 | 22.22° C | 52% | 989.2 hPa | - | - | - | - |
| 1777967102 | 21.67° C | 52% | 989.4 hPa | - | - | - | - |
| 1777966202 | 21.67° C | 49% | 989.4 hPa | - | - | - | - |
| 1777965302 | 21.67° C | 48% | 989.4 hPa | - | - | - | - |
| 1777964402 | 22.78° C | 46% | 989.5 hPa | - | - | - | - |
| 1777962602 | 23.33° C | 47% | 989.7 hPa | - | - | - | - |
| 1777961702 | 23.33° C | 48% | 989.8 hPa | - | - | - | - |
| 1777960803 | 23.89° C | 49% | 990 hPa | - | - | - | - |
| 1777959902 | 22.78° C | 50% | 990.1 hPa | - | - | - | - |
| 1777959002 | 21.67° C | 52% | 990.1 hPa | - | - | - | - |
| 1777958102 | 21.11° C | 54% | 990.3 hPa | - | - | - | - |
| 1777957202 | 21.67° C | 52% | 990.3 hPa | - | - | - | - |
| 1777956302 | 22.22° C | 54% | 990.1 hPa | - | - | - | - |
| 1777955402 | 20.56° C | 60% | 990.2 hPa | - | - | - | - |
| 1777954503 | 18.89° C | 65% | 990.3 hPa | - | - | - | - |
* Rain since midnight (hover to see other rain measurements)
** Current wind speed in m/s (hover to see current wind gust speed)